Time;durP1;ratioP1;P1;durP2;ratioP2;P2;SDS_P1;SDS_P2;PMS_P1;PMS_P2;Temp;Humidity;BMP_temperature;BMP_pressure;BME280_temperature;BME280_humidity;BME280_pressure;Samples;Min_cycle;Max_cycle;Signal;HPM_P1;HPM_P2
2022/09/05 00:00:08;;;;;;;7.75;3.58;;;;;;;18.10;62.81;101692.91;5283207;28;20154;-73
2022/09/05 00:03:01;;;;;;;10.73;3.80;;;;;;;18.19;61.97;101693.50;5283202;28;20028;-73
2022/09/05 00:05:55;;;;;;;9.60;4.00;;;;;;;17.92;63.62;101689.03;5283252;28;20033;-74
2022/09/05 00:08:55;;;;;;;11.40;3.88;;;;;;;17.86;63.43;101679.50;5283177;28;20032;-74
2022/09/05 00:11:48;;;;;;;10.82;4.88;;;;;;;17.64;64.04;101684.50;5283015;28;20045;-73
2022/09/05 00:14:20;;;;;;;;;;;;;;;17.89;61.43;101683.84;5283400;28;20083;-73
2022/09/05 00:17:09;;;;;;;10.80;3.90;;;;;;;17.53;64.47;101678.69;5282925;28;19945;-73
2022/09/05 00:20:04;;;;;;;8.00;4.30;;;;;;;17.54;64.22;101680.41;5283130;28;20036;-73
2022/09/05 00:22:50;;;;;;;11.15;3.72;;;;;;;17.38;65.19;101686.09;5282455;28;20063;-73
2022/09/05 00:25:43;;;;;;;20.02;4.57;;;;;;;17.36;64.95;101687.06;5282990;28;20098;-73
2022/09/05 00:28:23;;;;;;;9.70;4.03;;;;;;;17.22;65.66;101682.13;5283015;28;20037;-73
2022/09/05 00:31:16;;;;;;;11.63;4.03;;;;;;;17.20;65.60;101678.69;5267770;28;20033;-73
2022/09/05 00:34:23;;;;;;;9.63;4.28;;;;;;;17.17;65.43;101676.13;5261257;28;20132;-73
2022/09/05 00:36:55;;;;;;;9.45;3.88;;;;;;;17.12;66.38;101684.16;5261530;28;20040;-74
2022/09/05 00:39:38;;;;;;;5.45;3.40;;;;;;;17.04;66.20;101681.72;5260694;28;20029;-73
2022/09/05 00:42:16;;;;;;;8.57;3.95;;;;;;;16.96;66.69;101681.03;5262155;28;20530;-73
2022/09/05 00:44:56;;;;;;;9.13;4.45;;;;;;;16.93;66.90;101679.34;5261987;28;20429;-73
2022/09/05 00:47:46;;;;;;;8.30;4.25;;;;;;;17.18;65.68;101676.09;5261840;28;20345;-73
2022/09/05 00:51:04;;;;;;;10.55;3.83;;;;;;;16.99;66.10;101672.22;5261689;28;20460;-73
2022/09/05 00:53:50;;;;;;;7.88;4.00;;;;;;;16.87;66.87;101673.34;5258688;28;20033;-73
2022/09/05 00:56:49;;;;;;;6.78;3.88;;;;;;;16.92;66.48;101675.00;5261869;28;20095;-73
2022/09/05 00:59:38;;;;;;;7.80;4.60;;;;;;;17.14;66.28;101672.66;5261674;28;20029;-73
2022/09/05 01:02:47;;;;;;;9.02;3.88;;;;;;;16.92;67.04;101676.75;5261727;28;20032;-73
2022/09/05 01:05:49;;;;;;;8.80;4.15;;;;;;;17.09;66.26;101676.31;5260358;28;20457;-73
2022/09/05 01:08:58;;;;;;;8.10;4.30;;;;;;;17.06;66.48;101672.00;5261228;28;20040;-73
2022/09/05 01:11:44;;;;;;;8.63;4.68;;;;;;;16.85;67.74;101675.16;5260833;28;20049;-73
2022/09/05 01:14:31;;;;;;;7.85;4.30;;;;;;;16.74;68.50;101678.91;5261822;28;20492;-73
2022/09/05 01:17:19;;;;;;;8.38;4.32;;;;;;;16.78;68.53;101675.28;5261658;28;20082;-73
2022/09/05 01:20:40;;;;;;;6.18;4.70;;;;;;;16.76;68.23;101682.38;5261429;28;20025;-73
2022/09/05 01:23:30;;;;;;;6.78;4.32;;;;;;;16.75;67.95;101672.72;5217228;28;20048;-73
2022/09/05 01:26:32;;;;;;;5.38;3.88;;;;;;;16.78;68.76;101675.28;5217667;28;20068;-73
2022/09/05 01:29:30;;;;;;;6.72;4.57;;;;;;;16.72;68.99;101675.44;5256284;28;20057;-73
2022/09/05 01:32:07;;;;;;;6.82;4.75;;;;;;;16.74;69.23;101671.03;5261578;28;20032;-73
2022/09/05 01:34:55;;;;;;;7.90;4.75;;;;;;;16.58;69.58;101678.41;5261388;28;20052;-74
2022/09/05 01:37:45;;;;;;;9.13;5.18;;;;;;;16.43;70.60;101677.91;5260055;28;20029;-74
2022/09/05 01:40:18;;;;;;;9.25;4.57;;;;;;;16.39;70.44;101674.47;5261645;28;20029;-74
2022/09/05 01:42:49;;;;;;;;;;;;;;;16.59;67.74;101666.97;5261600;28;20033;-74
2022/09/05 01:45:28;;;;;;;7.68;4.40;;;;;;;16.55;69.99;101657.44;5260979;28;19909;-73
2022/09/05 01:48:05;;;;;;;8.07;4.28;;;;;;;16.64;70.50;101668.63;5261385;28;20105;-74
2022/09/05 01:51:14;;;;;;;11.98;5.32;;;;;;;16.61;70.08;101666.06;5264910;28;20025;-72
2022/09/05 01:53:55;;;;;;;9.77;4.82;;;;;;;16.44;71.54;101666.47;5264879;28;20074;-72
2022/09/05 01:56:52;;;;;;;7.20;5.07;;;;;;;16.51;71.40;101674.19;5264886;28;20033;-72
2022/09/05 01:59:45;;;;;;;23.02;6.10;;;;;;;16.48;71.57;101671.63;5265226;28;20036;-72
2022/09/05 02:02:58;;;;;;;13.80;4.97;;;;;;;16.48;70.82;101668.97;5264929;28;20131;-72
2022/09/05 02:06:06;;;;;;;15.00;6.47;;;;;;;16.49;70.88;101667.25;5264791;28;20159;-72
2022/09/05 02:08:54;;;;;;;16.17;6.55;;;;;;;16.54;71.33;101668.84;5264593;28;20124;-72
2022/09/05 02:11:48;;;;;;;28.30;7.38;;;;;;;16.43;71.60;101670.88;5264652;28;20037;-72
2022/09/05 02:14:19;;;;;;;25.45;8.23;;;;;;;16.09;72.60;101673.41;5263276;28;20544;-72
2022/09/05 02:16:54;;;;;;;18.87;8.00;;;;;;;16.48;72.49;101676.03;5264567;28;20116;-72
2022/09/05 02:19:30;;;;;;;28.45;8.07;;;;;;;16.38;73.03;101670.13;5264507;28;20055;-73
2022/09/05 02:22:11;;;;;;;34.10;8.18;;;;;;;16.26;73.49;101679.16;5264053;28;20076;-72
2022/09/05 02:24:52;;;;;;;37.88;8.30;;;;;;;16.41;72.76;101681.44;5263171;28;20029;-72
2022/09/05 02:27:42;;;;;;;42.70;9.45;;;;;;;16.23;73.57;101679.22;5264089;28;20029;-73
2022/09/05 02:30:23;;;;;;;28.70;9.20;;;;;;;16.30;73.61;101675.53;5264302;28;20089;-73
2022/09/05 02:33:16;;;;;;;36.53;8.55;;;;;;;16.35;73.10;101681.56;5262880;28;20063;-73
2022/09/05 02:36:06;;;;;;;27.25;8.98;;;;;;;16.27;73.34;101683.50;5264204;28;20033;-73
2022/09/05 02:38:54;;;;;;;35.97;9.32;;;;;;;16.17;74.14;101679.34;5263785;28;20033;-73
2022/09/05 02:41:55;;;;;;;37.00;9.57;;;;;;;16.12;74.72;101683.84;5264154;28;20035;-72
2022/09/05 02:44:58;;;;;;;41.85;9.98;;;;;;;16.09;74.63;101684.78;5226542;28;20045;-72
2022/09/05 02:48:02;;;;;;;31.95;8.50;;;;;;;16.17;75.11;101682.84;5259949;28;20123;-72
2022/09/05 02:51:18;;;;;;;30.33;9.05;;;;;;;16.10;74.32;101686.50;5254692;28;20127;-72
2022/09/05 02:54:01;;;;;;;27.65;8.75;;;;;;;16.09;75.40;101678.66;5219770;28;20029;-72
2022/09/05 02:56:54;;;;;;;30.05;8.50;;;;;;;16.02;75.66;101684.03;5262166;28;20535;-72
2022/09/05 02:59:37;;;;;;;31.75;9.07;;;;;;;15.90;76.49;101680.81;5261596;28;20207;-73
2022/09/05 03:02:18;;;;;;;34.70;9.13;;;;;;;15.97;76.09;101677.13;5263737;28;20036;-72
2022/09/05 03:05:18;;;;;;;31.50;8.50;;;;;;;15.96;75.86;101686.78;5263319;28;20480;-73
2022/09/05 03:08:11;;;;;;;27.60;9.95;;;;;;;15.89;76.34;101685.22;5262168;28;20045;-72
2022/09/05 03:11:25;;;;;;;29.45;9.02;;;;;;;15.97;75.79;101679.75;5263432;28;20057;-72
2022/09/05 03:14:28;;;;;;;33.13;9.63;;;;;;;15.90;76.27;101689.53;5234395;28;20155;-71
2022/09/05 03:17:22;;;;;;;24.45;8.45;;;;;;;15.81;76.58;101677.47;5263030;28;20036;-72
2022/09/05 03:20:31;;;;;;;23.33;8.15;;;;;;;15.90;76.27;101684.28;5243594;28;20537;-73
2022/09/05 03:23:21;;;;;;;27.13;8.15;;;;;;;15.81;76.92;101677.47;5262768;28;20039;-73
2022/09/05 03:26:36;;;;;;;19.30;8.10;;;;;;;15.72;77.21;101674.13;5263074;28;20036;-73
2022/09/05 03:29:29;;;;;;;22.33;7.25;;;;;;;15.78;77.54;101680.16;5262965;28;20079;-72
2022/09/05 03:32:34;;;;;;;21.55;8.02;;;;;;;15.79;77.27;101683.63;5263116;28;20451;-72
2022/09/05 03:35:08;;;;;;;13.32;7.85;;;;;;;15.77;77.85;101680.19;5262985;28;20043;-72
2022/09/05 03:38:09;;;;;;;17.45;7.65;;;;;;;15.64;78.31;101675.13;5262964;28;20078;-73
2022/09/05 03:40:52;;;;;;;18.52;7.88;;;;;;;15.62;78.75;101671.69;5261664;28;20155;-72
2022/09/05 03:43:48;;;;;;;22.00;7.55;;;;;;;15.69;77.85;101681.16;5262532;28;20152;-72
2022/09/05 03:46:42;;;;;;;13.55;8.23;;;;;;;15.56;78.65;101678.81;5261267;28;20325;-73
2022/09/05 03:49:36;;;;;;;13.00;7.05;;;;;;;15.42;79.38;101676.44;5262526;28;20131;-73
2022/09/05 03:52:24;;;;;;;15.60;7.78;;;;;;;15.28;80.04;101676.72;5262174;28;20035;-72
2022/09/05 03:55:14;;;;;;;15.98;8.00;;;;;;;15.30;79.94;101683.66;5262605;28;20033;-73
2022/09/05 03:58:16;;;;;;;13.45;6.80;;;;;;;15.49;79.04;101676.31;5262608;28;20040;-72
2022/09/05 04:01:11;;;;;;;15.47;7.43;;;;;;;15.42;79.53;101673.81;5262550;28;20468;-73
2022/09/05 04:03:48;;;;;;;14.82;7.85;;;;;;;15.18;80.44;101670.72;5261354;28;20024;-73
2022/09/05 04:06:31;;;;;;;12.02;6.80;;;;;;;15.44;80.33;101680.78;5262005;28;20039;-73
2022/09/05 04:09:18;;;;;;;10.55;6.90;;;;;;;15.24;80.66;101678.50;5261157;28;20111;-72
2022/09/05 04:11:54;;;;;;;19.85;7.38;;;;;;;15.39;80.31;101677.38;5260112;28;20136;-72
2022/09/05 04:14:34;;;;;;;14.15;6.97;;;;;;;15.33;80.15;101674.84;5262007;28;20039;-72
2022/09/05 04:17:22;;;;;;;15.50;7.38;;;;;;;15.27;80.61;101675.81;5262481;28;20029;-72
2022/09/05 04:20:18;;;;;;;16.02;7.90;;;;;;;15.21;80.78;101683.81;5262312;28;20456;-72
2022/09/05 04:23:15;;;;;;;15.35;7.65;;;;;;;15.19;80.89;101679.50;5261839;28;20345;-72
2022/09/05 04:25:52;;;;;;;12.73;7.18;;;;;;;15.15;81.47;101681.31;5262236;28;20075;-74
2022/09/05 04:28:58;;;;;;;13.65;7.65;;;;;;;15.02;81.88;101674.53;5262174;28;20480;-74
2022/09/05 04:31:29;;;;;;;12.65;7.68;;;;;;;15.18;81.90;101678.59;5262094;28;20457;-73
2022/09/05 04:34:14;;;;;;;18.17;9.50;;;;;;;15.05;81.69;101677.09;5262048;28;20112;-73
2022/09/05 04:36:57;;;;;;;13.50;8.50;;;;;;;15.00;82.26;101677.16;5260840;28;20044;-73
2022/09/05 04:39:29;;;;;;;;;;;;;;;15.06;79.92;101676.22;5262772;28;20029;-73
2022/09/05 04:42:03;;;;;;;11.43;6.53;;;;;;;15.09;81.87;101684.91;5261973;28;20389;-73
2022/09/05 04:44:50;;;;;;;10.32;7.45;;;;;;;15.04;82.40;101688.50;5273211;28;20033;-73
2022/09/05 04:47:34;;;;;;;9.13;7.20;;;;;;;14.88;82.25;101690.53;5281041;28;20120;-73
2022/09/05 04:50:16;;;;;;;17.63;7.85;;;;;;;14.93;82.27;101681.66;5282931;28;20032;-73
2022/09/05 04:53:11;;;;;;;15.45;8.82;;;;;;;14.92;81.75;101693.06;5282214;28;20090;-73
2022/09/05 04:55:49;;;;;;;10.55;7.95;;;;;;;14.93;82.54;101689.53;5282404;28;20029;-74
2022/09/05 04:58:32;;;;;;;13.43;8.50;;;;;;;14.98;82.60;101701.75;5282562;28;20033;-75
2022/09/05 05:01:11;;;;;;;9.80;7.97;;;;;;;14.97;82.49;101698.22;5282575;28;20028;-74
2022/09/05 05:03:44;;;;;;;11.00;7.90;;;;;;;15.10;82.30;101697.16;5282551;28;20463;-75
2022/09/05 05:06:21;;;;;;;12.48;7.13;;;;;;;15.13;82.32;101707.59;5282331;28;20081;-75
2022/09/05 05:09:11;;;;;;;10.43;7.32;;;;;;;14.98;82.89;101707.00;5280997;28;20073;-74
2022/09/05 05:11:50;;;;;;;12.32;7.30;;;;;;;15.06;82.81;101700.72;5282051;28;20053;-74
2022/09/05 05:14:41;;;;;;;9.50;7.72;;;;;;;15.13;82.40;101706.72;5281582;28;20029;-73
2022/09/05 05:17:31;;;;;;;14.55;7.78;;;;;;;15.09;82.61;101705.06;5282266;28;20042;-75
2022/09/05 05:20:09;;;;;;;9.60;7.63;;;;;;;15.15;82.64;101707.59;5280631;28;20024;-75
2022/09/05 05:23:01;;;;;;;14.05;8.73;;;;;;;15.11;82.09;101704.13;5284472;28;20090;-75
2022/09/05 05:25:43;;;;;;;11.73;8.15;;;;;;;15.16;82.44;101704.03;5286008;28;20539;-75
2022/09/05 05:28:46;;;;;;;15.75;8.43;;;;;;;15.11;82.29;101706.75;5286112;28;20029;-74
2022/09/05 05:31:24;;;;;;;13.00;8.10;;;;;;;15.19;82.18;101713.63;5284505;28;20028;-74
2022/09/05 05:34:00;;;;;;;16.83;7.85;;;;;;;15.26;82.60;101713.50;5285778;28;20376;-75
2022/09/05 05:36:38;;;;;;;12.07;8.57;;;;;;;15.27;82.88;101711.75;5285511;28;20033;-75
2022/09/05 05:39:13;;;;;;;12.75;7.53;;;;;;;15.37;82.81;101710.66;5285596;28;20537;-75
2022/09/05 05:41:52;;;;;;;14.40;8.85;;;;;;;15.30;83.04;101711.69;5285110;28;20032;-75
2022/09/05 05:44:33;;;;;;;12.70;8.13;;;;;;;15.32;82.41;101707.25;5284248;28;20033;-75
2022/09/05 05:47:08;;;;;;;11.98;7.47;;;;;;;15.42;82.55;101700.97;5285700;28;20035;-75
2022/09/05 05:49:48;;;;;;;12.23;8.52;;;;;;;15.26;82.75;101708.25;5285917;28;20093;-75
2022/09/05 05:52:25;;;;;;;15.82;9.25;;;;;;;15.31;82.70;101700.25;5285041;28;20033;-74
2022/09/05 05:55:13;;;;;;;14.30;9.23;;;;;;;15.47;81.95;101712.25;5285611;28;20480;-75
2022/09/05 05:58:08;;;;;;;14.77;9.52;;;;;;;15.57;82.76;101719.94;5284230;28;20029;-75
2022/09/05 06:01:25;;;;;;;13.75;9.77;;;;;;;15.63;81.68;101715.47;5285458;28;20093;-75
2022/09/05 06:04:02;;;;;;;14.80;9.73;;;;;;;15.70;82.03;101718.84;5283432;28;20029;-75
2022/09/05 06:06:58;;;;;;;11.85;9.63;;;;;;;15.86;82.56;101728.19;5285520;28;20060;-75
2022/09/05 06:09:29;;;;;;;14.15;9.10;;;;;;;15.93;81.75;101722.81;5285127;28;20101;-75
2022/09/05 06:12:38;;;;;;;18.00;9.13;;;;;;;16.04;80.39;101728.72;5285820;28;20140;-74
2022/09/05 06:15:24;;;;;;;15.20;9.57;;;;;;;16.23;79.54;101737.09;5285321;28;20472;-74
2022/09/05 06:18:54;;;;;;;17.40;10.80;;;;;;;16.38;79.32;101744.66;5285239;28;20027;-74
2022/09/05 06:22:13;;;;;;;17.38;9.45;;;;;;;16.58;78.03;101740.69;5269483;28;20215;-75
2022/09/05 06:25:08;;;;;;;15.63;9.38;;;;;;;16.76;78.12;101744.72;5279407;28;20047;-74
2022/09/05 06:27:45;;;;;;;14.68;9.35;;;;;;;16.93;76.37;101741.69;5284673;28;20036;-74
2022/09/05 06:30:21;;;;;;;14.30;9.38;;;;;;;16.98;76.61;101741.59;5284829;28;20031;-74
2022/09/05 06:32:59;;;;;;;29.25;10.10;;;;;;;17.13;76.02;101739.44;5283890;28;20029;-75
2022/09/05 06:35:48;;;;;;;26.77;9.73;;;;;;;17.29;74.53;101744.31;5284822;28;20436;-74
2022/09/05 06:39:04;;;;;;;33.40;11.65;;;;;;;17.45;74.96;101737.75;5284894;28;20517;-76
2022/09/05 06:41:47;;;;;;;19.05;8.15;;;;;;;17.72;73.55;101739.69;5284685;28;20066;-74
2022/09/05 06:44:44;;;;;;;14.48;8.27;;;;;;;17.89;73.28;101737.47;5284739;28;20430;-74
2022/09/05 06:47:19;;;;;;;14.48;8.00;;;;;;;18.02;71.34;101741.47;5283316;28;20044;-74
2022/09/05 06:49:57;;;;;;;10.07;7.13;;;;;;;18.21;70.69;101740.97;5284284;28;20109;-74
2022/09/05 06:52:56;;;;;;;16.00;7.75;;;;;;;18.35;71.04;101738.78;5284021;28;20407;-73
2022/09/05 06:55:42;;;;;;;19.45;7.00;;;;;;;18.52;69.48;101738.25;5284293;28;20176;-73
2022/09/05 06:58:31;;;;;;;10.43;7.22;;;;;;;18.58;70.55;101732.78;5284798;28;20138;-73
2022/09/05 07:01:05;;;;;;;12.48;6.68;;;;;;;18.69;68.72;101737.72;5282945;28;20056;-73
2022/09/05 07:03:55;;;;;;;13.40;6.32;;;;;;;18.84;67.07;101738.19;5284184;28;20040;-73
2022/09/05 07:06:36;;;;;;;14.63;8.02;;;;;;;18.97;66.33;101749.22;5284057;28;20078;-74
2022/09/05 07:09:25;;;;;;;10.10;6.05;;;;;;;19.09;66.71;101749.69;5284032;28;20028;-73
2022/09/05 07:12:05;;;;;;;15.30;6.75;;;;;;;19.16;65.95;101746.81;5284391;28;20040;-73
2022/09/05 07:15:08;;;;;;;12.02;5.90;;;;;;;19.31;66.41;101748.97;5284076;28;20051;-73
2022/09/05 07:17:58;;;;;;;19.73;6.28;;;;;;;19.43;65.31;101761.78;5283016;28;20040;-73
2022/09/05 07:20:39;;;;;;;16.95;6.18;;;;;;;19.56;63.77;101748.09;5283784;28;20025;-73
2022/09/05 07:23:39;;;;;;;12.02;5.70;;;;;;;19.73;63.73;101747.50;5283282;28;20036;-74
2022/09/05 07:26:11;;;;;;;9.35;5.30;;;;;;;19.82;61.27;101752.50;5284136;28;20505;-73
2022/09/05 07:28:48;;;;;;;8.88;5.13;;;;;;;19.85;62.49;101752.38;5283721;28;20029;-74
2022/09/05 07:31:26;;;;;;;12.52;4.97;;;;;;;20.00;62.15;101753.63;5283864;28;20029;-73
2022/09/05 07:34:28;;;;;;;8.32;4.60;;;;;;;20.15;60.99;101760.13;5283492;28;20365;-74
2022/09/05 07:37:24;;;;;;;11.05;5.20;;;;;;;20.30;61.83;101761.31;5283591;28;20425;-74
2022/09/05 07:40:01;;;;;;;9.25;4.78;;;;;;;20.45;59.58;101768.69;5274448;28;20033;-74
2022/09/05 07:42:40;;;;;;;9.98;3.78;;;;;;;20.58;58.54;101769.06;5283361;28;20020;-75
2022/09/05 07:45:21;;;;;;;6.78;4.15;;;;;;;20.64;58.64;101767.97;5283256;28;20028;-74
2022/09/05 07:48:03;;;;;;;7.35;3.55;;;;;;;20.94;56.82;101774.69;5281823;28;20033;-74
2022/09/05 07:50:46;;;;;;;6.93;3.60;;;;;;;21.05;56.32;101774.28;5283401;28;20486;-74
2022/09/05 07:53:19;;;;;;;4.80;3.53;;;;;;;21.20;55.08;101769.25;5282728;28;20087;-74
2022/09/05 07:55:57;;;;;;;7.88;3.40;;;;;;;21.36;55.09;101774.78;5283183;28;20032;-74
2022/09/05 07:58:40;;;;;;;8.90;3.40;;;;;;;21.78;53.97;101779.19;5282962;28;20028;-74
2022/09/05 08:01:13;;;;;;;11.38;3.45;;;;;;;21.73;53.54;101774.06;5283102;28;20062;-74
2022/09/05 08:03:44;;;;;;;8.18;2.83;;;;;;;21.89;53.11;101774.25;5282760;28;20474;-74
2022/09/05 08:06:25;;;;;;;6.67;3.30;;;;;;;22.13;54.02;101768.78;5281785;28;20062;-74
2022/09/05 08:09:06;;;;;;;12.00;3.35;;;;;;;22.22;53.40;101776.34;5282994;28;20361;-74
2022/09/05 08:11:38;;;;;;;5.70;2.78;;;;;;;22.41;52.97;101768.38;5281668;28;20067;-74
2022/09/05 08:14:42;;;;;;;5.80;3.25;;;;;;;22.53;52.68;101767.81;5281152;28;20044;-74
2022/09/05 08:17:19;;;;;;;8.35;3.28;;;;;;;22.57;52.00;101764.09;5283120;28;20098;-74
2022/09/05 08:20:17;;;;;;;9.18;3.25;;;;;;;22.67;52.15;101768.94;5281593;28;20376;-74
2022/09/05 08:22:53;;;;;;;7.55;2.70;;;;;;;22.80;51.44;101763.88;5280260;28;20401;-75
2022/09/05 08:25:32;;;;;;;5.95;2.58;;;;;;;22.99;50.53;101764.72;5282657;28;20418;-74
2022/09/05 08:28:06;;;;;;;9.35;2.75;;;;;;;23.12;50.08;101765.88;5282842;28;20097;-75
2022/09/05 08:30:44;;;;;;;3.45;2.35;;;;;;;23.37;48.57;101771.75;5282768;28;20063;-74
2022/09/05 08:33:24;;;;;;;5.93;2.67;;;;;;;23.59;48.55;101782.16;5282583;28;20375;-75
2022/09/05 08:36:35;;;;;;;6.90;2.67;;;;;;;23.58;47.72;101769.78;5282994;28;20107;-75
2022/09/05 08:39:10;;;;;;;6.57;2.63;;;;;;;23.62;47.83;101774.88;5201409;28;20065;-75
2022/09/05 08:41:52;;;;;;;6.35;2.45;;;;;;;23.69;46.20;101774.53;5274359;28;20044;-75
2022/09/05 08:44:48;;;;;;;8.65;2.60;;;;;;;23.80;46.62;101783.69;5282492;28;20048;-74
2022/09/05 08:47:38;;;;;;;7.57;2.58;;;;;;;23.81;49.68;101771.22;5282570;28;20035;-75
2022/09/05 08:50:37;;;;;;;5.95;2.45;;;;;;;24.06;47.42;101772.63;5282449;28;20464;-74
2022/09/05 08:53:34;;;;;;;5.57;2.10;;;;;;;24.15;47.01;101766.78;5281826;28;20036;-75
2022/09/05 08:56:17;;;;;;;10.73;2.78;;;;;;;24.31;47.20;101762.34;5283032;28;20162;-75
2022/09/05 08:59:20;;;;;;;6.50;2.50;;;;;;;24.39;45.13;101760.09;5286910;28;20036;-75
2022/09/05 09:02:16;;;;;;;6.38;2.75;;;;;;;24.61;45.47;101756.25;5286772;28;20479;-74
2022/09/05 09:05:08;;;;;;;8.32;2.80;;;;;;;24.91;45.00;101764.31;5286509;28;20056;-74
2022/09/05 09:08:01;;;;;;;6.68;2.88;;;;;;;25.30;46.61;101760.28;5286665;28;20024;-74
2022/09/05 09:10:56;;;;;;;13.07;2.53;;;;;;;26.13;44.09;101757.03;5286403;28;20048;-74
2022/09/05 09:13:33;;;;;;;7.55;2.38;;;;;;;26.54;41.04;101747.31;5286015;28;20036;-74
2022/09/05 09:16:10;;;;;;;6.47;2.33;;;;;;;27.48;41.06;101741.06;5285125;28;20036;-75
2022/09/05 09:18:47;;;;;;;8.43;3.10;;;;;;;27.91;40.87;101754.13;5286303;28;20028;-75
2022/09/05 09:21:41;;;;;;;11.27;2.50;;;;;;;28.46;37.08;101748.47;5286164;28;20039;-74
2022/09/05 09:24:34;;;;;;;13.35;2.67;;;;;;;29.02;36.88;101751.44;5286208;28;20040;-75
2022/09/05 09:27:18;;;;;;;6.97;2.45;;;;;;;29.45;36.34;101747.31;5285838;28;20032;-75
2022/09/05 09:29:53;;;;;;;6.38;2.35;;;;;;;30.04;33.51;101740.88;5285763;28;20072;-74
2022/09/05 09:32:24;;;;;;;5.03;1.85;;;;;;;30.26;34.60;101741.84;5285181;28;20495;-75
2022/09/05 09:35:07;;;;;;;6.88;2.38;;;;;;;30.59;32.09;101745.44;5284834;28;20134;-74
2022/09/05 09:38:12;;;;;;;7.43;2.22;;;;;;;31.06;32.79;101744.19;5285961;28;20037;-74
2022/09/05 09:41:14;;;;;;;9.25;2.40;;;;;;;31.24;32.02;101738.22;5285742;28;20384;-75
2022/09/05 09:44:08;;;;;;;8.27;2.28;;;;;;;31.11;29.86;101732.16;5285800;28;20039;-75
2022/09/05 09:46:45;;;;;;;7.53;2.15;;;;;;;31.11;30.90;101738.41;5285659;28;20029;-75
2022/09/05 09:49:24;;;;;;;3.63;2.00;;;;;;;31.76;29.04;101732.84;5285546;28;20459;-74
2022/09/05 09:52:20;;;;;;;4.53;2.08;;;;;;;31.50;31.33;101735.09;5285176;28;20039;-75
2022/09/05 09:55:16;;;;;;;4.32;2.30;;;;;;;31.75;30.18;101718.50;5285583;28;20048;-75
2022/09/05 09:58:06;;;;;;;8.60;2.28;;;;;;;32.46;28.20;101724.78;5285423;28;20044;-75
2022/09/05 10:00:45;;;;;;;5.75;2.33;;;;;;;32.64;29.86;101731.25;5285117;28;20056;-76
2022/09/05 10:03:22;;;;;;;4.57;2.35;;;;;;;32.98;30.82;101733.50;5283746;28;20067;-76
2022/09/05 10:06:08;;;;;;;6.75;2.10;;;;;;;33.58;28.22;101721.59;5285304;28;20036;-76
2022/09/05 10:08:55;;;;;;;3.85;2.42;;;;;;;33.88;27.30;101717.78;5284069;28;20037;-75
2022/09/05 10:11:44;;;;;;;5.80;2.10;;;;;;;33.98;28.57;101710.47;5285355;28;20059;-77
2022/09/05 10:14:55;;;;;;;8.13;2.95;;;;;;;34.52;26.77;101709.72;5285209;28;20028;-77
2022/09/05 10:17:45;;;;;;;4.35;2.10;;;;;;;35.30;27.56;101702.75;5284798;28;20028;-76
2022/09/05 10:20:23;;;;;;;4.50;1.80;;;;;;;35.08;26.23;101707.63;5285068;28;20021;-76
2022/09/05 10:23:24;;;;;;;8.60;2.45;;;;;;;35.41;25.05;101700.59;5284613;28;20483;-76
2022/09/05 10:26:26;;;;;;;3.67;2.00;;;;;;;35.69;23.70;101711.22;5284987;28;20035;-76
2022/09/05 10:29:06;;;;;;;5.47;1.95;;;;;;;35.28;23.01;101702.03;5284910;28;20107;-76
2022/09/05 10:31:43;;;;;;;8.57;2.17;;;;;;;34.94;22.65;101691.97;5284840;28;20483;-76
2022/09/05 10:34:20;;;;;;;6.30;2.60;;;;;;;35.40;23.94;101704.31;5284781;28;20099;-76
2022/09/05 10:37:01;;;;;;;4.57;2.28;;;;;;;35.55;22.55;101695.56;5284786;28;20456;-76
2022/09/05 10:39:37;;;;;;;5.47;2.00;;;;;;;35.94;23.14;101690.50;5284711;28;20464;-76
2022/09/05 10:42:14;;;;;;;4.60;2.13;;;;;;;36.02;23.00;101691.53;5284638;28;20024;-76
2022/09/05 10:44:56;;;;;;;5.25;1.95;;;;;;;36.77;24.33;101691.50;5284173;28;20058;-76
2022/09/05 10:47:40;;;;;;;2.95;2.08;;;;;;;37.37;23.01;101692.97;5284655;28;20055;-76
2022/09/05 10:50:31;;;;;;;4.80;2.45;;;;;;;37.79;22.65;101692.81;5285764;28;20055;-76
2022/09/05 10:53:40;;;;;;;2.88;2.17;;;;;;;38.33;21.64;101678.41;5288286;28;20029;-76
2022/09/05 10:56:21;;;;;;;2.35;1.90;;;;;;;37.47;22.02;101681.03;5271605;28;20047;-77
2022/09/05 10:58:59;;;;;;;;;;;;;;;39.45;20.13;101677.66;5283853;28;20037;-76
2022/09/05 11:01:31;;;;;;;3.15;2.08;;;;;;;37.38;19.69;101677.50;5284591;28;20556;-76
2022/09/05 11:04:14;;;;;;;4.32;2.17;;;;;;;38.48;19.53;101680.16;5284857;28;20111;-76
2022/09/05 11:06:52;;;;;;;4.50;2.10;;;;;;;38.29;19.15;101661.59;5285281;28;20111;-75
2022/09/05 11:09:36;;;;;;;5.22;2.30;;;;;;;39.09;20.03;101664.81;5284308;28;20039;-77
2022/09/05 11:12:46;;;;;;;4.03;1.83;;;;;;;39.34;19.56;101658.03;5283620;28;20044;-75
2022/09/05 11:15:29;;;;;;;3.10;2.20;;;;;;;39.37;20.79;101657.66;5284375;28;20051;-76
2022/09/05 11:18:07;;;;;;;5.75;2.58;;;;;;;39.10;18.86;101658.31;5284308;28;20043;-76
2022/09/05 11:21:00;;;;;;;4.20;2.22;;;;;;;39.88;19.35;101654.09;5283836;28;20495;-76
2022/09/05 11:23:45;;;;;;;11.30;3.50;;;;;;;40.06;18.38;101650.97;5283136;28;20033;-76
2022/09/05 11:26:42;;;;;;;3.72;2.60;;;;;;;41.07;19.06;101662.75;5283507;28;20032;-77
2022/09/05 11:29:20;;;;;;;4.20;2.58;;;;;;;39.67;18.12;101651.31;5283383;28;20028;-75
2022/09/05 11:32:26;;;;;;;5.20;3.03;;;;;;;40.51;18.98;101661.69;5283283;28;20032;-75
2022/09/05 11:35:42;;;;;;;7.35;3.08;;;;;;;40.88;19.69;101656.09;5283378;28;20456;-76
2022/09/05 11:38:25;;;;;;;3.90;2.47;;;;;;;40.65;16.55;101655.28;5259392;28;20171;-76
2022/09/05 11:41:02;;;;;;;6.43;2.70;;;;;;;40.68;18.37;101647.75;5283553;28;20128;-77
2022/09/05 11:43:55;;;;;;;10.68;2.88;;;;;;;41.24;17.19;101633.19;5282128;28;20028;-77
2022/09/05 11:47:17;;;;;;;6.30;3.00;;;;;;;42.31;17.90;101650.78;5283499;28;20029;-76
2022/09/05 11:50:03;;;;;;;3.70;2.53;;;;;;;42.28;16.54;101648.47;5257180;28;20094;-77
2022/09/05 11:52:57;;;;;;;4.00;3.38;;;;;;;41.10;16.29;101643.19;5283038;28;20031;-75
2022/09/05 11:55:49;;;;;;;4.25;2.58;;;;;;;40.86;16.86;101641.78;5283450;28;20038;-75
2022/09/05 11:58:39;;;;;;;4.80;3.08;;;;;;;41.14;16.60;101652.69;5283371;28;20028;-74
2022/09/05 12:01:49;;;;;;;5.68;2.90;;;;;;;39.81;17.19;101636.78;5283007;28;20039;-76
2022/09/05 12:04:42;;;;;;;6.57;3.30;;;;;;;40.45;19.71;101636.00;5283306;28;20032;-75
2022/09/05 12:07:27;;;;;;;3.53;2.78;;;;;;;40.37;19.39;101632.53;5283334;28;20043;-75
2022/09/05 12:10:25;;;;;;;5.80;3.20;;;;;;;41.85;19.44;101627.75;5283057;28;20069;-76
2022/09/05 12:13:24;;;;;;;3.50;3.00;;;;;;;41.93;15.96;101621.25;5283300;28;20035;-75
2022/09/05 12:15:58;;;;;;;5.72;3.13;;;;;;;40.18;18.81;101614.94;5283098;28;20033;-77
2022/09/05 12:18:36;;;;;;;5.80;3.25;;;;;;;39.81;18.04;101614.13;5283059;28;20433;-76
2022/09/05 12:21:29;;;;;;;4.47;3.20;;;;;;;41.13;19.25;101609.97;5282967;28;20077;-75
2022/09/05 12:24:16;;;;;;;4.43;2.80;;;;;;;40.77;17.50;101616.47;5282765;28;20369;-75
2022/09/05 12:26:56;;;;;;;6.28;3.10;;;;;;;40.79;16.52;101611.66;5283174;28;20495;-75
2022/09/05 12:29:34;;;;;;;5.00;3.20;;;;;;;40.42;17.17;101609.06;5283032;28;20500;-75
2022/09/05 12:32:19;;;;;;;3.75;2.50;;;;;;;39.43;19.45;101606.94;5280940;28;20036;-75
2022/09/05 12:34:50;;;;;;;4.80;3.00;;;;;;;39.25;19.88;101604.63;5281991;28;20063;-76
2022/09/05 12:37:22;;;;;;;4.30;2.72;;;;;;;40.17;19.63;101603.16;5282940;28;20420;-76
2022/09/05 12:40:20;;;;;;;9.07;3.10;;;;;;;41.25;18.97;101600.16;5282801;28;20112;-76
2022/09/05 12:42:58;;;;;;;6.95;3.50;;;;;;;40.98;16.92;101607.38;5282813;28;20037;-76
2022/09/05 12:45:32;;;;;;;4.32;3.53;;;;;;;40.91;18.34;101593.66;5282586;28;20029;-76
2022/09/05 12:48:25;;;;;;;3.97;3.10;;;;;;;41.37;17.45;101601.28;5282541;28;20035;-76
2022/09/05 12:51:08;;;;;;;5.78;3.03;;;;;;;40.77;19.41;101592.72;5281545;28;20452;-76
2022/09/05 12:54:02;;;;;;;6.25;3.50;;;;;;;41.40;18.70;101591.81;5282201;28;20444;-76
2022/09/05 12:56:53;;;;;;;4.22;3.55;;;;;;;41.57;19.18;101586.81;5282579;28;20491;-76